createdAt,value
2023-02-17T00:01:33.160Z,5.89
2023-02-17T00:04:01.584Z,5.89
2023-02-17T00:06:30.853Z,5.90
2023-02-17T00:09:00.379Z,5.92
2023-02-17T00:11:28.871Z,5.95
2023-02-17T00:13:57.063Z,5.98
2023-02-17T00:16:27.136Z,5.98
2023-02-17T00:18:58.316Z,6.00
2023-02-17T00:21:30.880Z,6.01
2023-02-17T00:23:59.084Z,6.02
2023-02-17T00:26:27.242Z,6.03
2023-02-17T00:28:55.099Z,6.04
2023-02-17T00:31:23.975Z,6.05
2023-02-17T00:33:55.525Z,6.07
2023-02-17T00:36:24.460Z,6.09
2023-02-17T00:38:55.227Z,6.10
2023-02-17T00:41:24.120Z,6.11
2023-02-17T00:43:51.972Z,6.12
2023-02-17T00:46:20.380Z,6.12
2023-02-17T00:48:49.018Z,6.12
2023-02-17T00:51:18.061Z,6.13
2023-02-17T00:53:46.434Z,6.14
2023-02-17T00:56:14.734Z,6.15
2023-02-17T00:58:43.103Z,6.15
2023-02-17T01:01:11.694Z,6.16
2023-02-17T01:03:42.300Z,6.16
2023-02-17T01:06:26.002Z,6.17
2023-02-17T01:08:53.890Z,6.19
2023-02-17T01:11:28.566Z,6.21
2023-02-17T01:14:00.383Z,6.21
2023-02-17T01:16:35.356Z,6.22
2023-02-17T01:19:05.837Z,6.23
2023-02-17T01:21:33.958Z,6.24
2023-02-17T01:24:05.164Z,6.26
2023-02-17T01:26:35.003Z,6.28
2023-02-17T01:29:04.287Z,6.31
2023-02-17T01:31:32.706Z,6.33
2023-02-17T01:34:03.032Z,6.35
2023-02-17T01:36:31.234Z,6.38
2023-02-17T01:39:00.007Z,6.42
2023-02-17T01:41:28.537Z,6.45
2023-02-17T01:44:13.399Z,6.49
2023-02-17T01:46:44.603Z,6.53
2023-02-17T01:49:33.023Z,6.57
2023-02-17T01:52:30.225Z,6.62
2023-02-17T01:55:08.322Z,6.69
2023-02-17T01:57:39.297Z,6.74
2023-02-17T02:00:08.376Z,6.79
2023-02-17T02:02:48.991Z,6.82
2023-02-17T02:05:20.180Z,6.85
2023-02-17T02:07:49.822Z,6.88
2023-02-17T02:10:19.201Z,6.92
2023-02-17T02:12:47.649Z,6.94
2023-02-17T02:15:17.422Z,6.96
2023-02-17T02:17:48.993Z,6.97
2023-02-17T02:20:35.656Z,6.98
2023-02-17T02:23:25.437Z,6.99
2023-02-17T02:26:26.815Z,7.00
2023-02-17T02:28:58.341Z,6.99
2023-02-17T02:31:51.832Z,7.00
2023-02-17T02:34:26.270Z,7.02
2023-02-17T02:37:21.406Z,7.04
2023-02-17T02:39:52.676Z,7.07
2023-02-17T02:42:24.277Z,7.07
2023-02-17T02:44:52.425Z,7.08
2023-02-17T02:47:43.189Z,7.10
2023-02-17T02:50:16.837Z,7.10
2023-02-17T02:53:04.160Z,7.11
2023-02-17T02:55:50.385Z,7.10
2023-02-17T02:58:24.200Z,7.07
2023-02-17T03:01:14.135Z,7.03
2023-02-17T03:04:11.801Z,6.99
2023-02-17T03:06:45.917Z,6.95
2023-02-17T03:09:25.812Z,6.93
2023-02-17T03:11:56.301Z,6.92
2023-02-17T03:14:25.130Z,6.90
2023-02-17T03:16:55.312Z,6.92
2023-02-17T03:19:25.984Z,6.94
2023-02-17T03:22:05.549Z,6.96
2023-02-17T03:24:34.856Z,6.97
2023-02-17T03:27:03.217Z,6.99
2023-02-17T03:29:31.133Z,7.01
2023-02-17T03:31:59.225Z,7.02
2023-02-17T03:34:27.158Z,7.03
2023-02-17T03:36:54.995Z,7.03
2023-02-17T03:39:22.919Z,7.03
2023-02-17T03:41:51.688Z,7.03
2023-02-17T03:44:20.478Z,7.02
2023-02-17T03:46:48.315Z,7.00
2023-02-17T03:49:16.141Z,6.98
2023-02-17T03:51:43.959Z,6.95
2023-02-17T03:54:11.883Z,6.91
2023-02-17T03:56:39.715Z,6.87
2023-02-17T03:59:08.420Z,6.85
2023-02-17T04:01:36.390Z,6.83
2023-02-17T04:04:04.417Z,6.80
2023-02-17T04:06:32.321Z,6.78
2023-02-17T04:09:00.212Z,6.77
2023-02-17T04:11:28.069Z,6.77
2023-02-17T04:13:55.911Z,6.75
2023-02-17T04:16:23.715Z,6.70
2023-02-17T04:18:51.567Z,6.66
2023-02-17T04:21:19.603Z,6.63
2023-02-17T04:23:47.520Z,6.60
2023-02-17T04:26:15.315Z,6.58
2023-02-17T04:28:43.188Z,6.55
2023-02-17T04:31:11.225Z,6.51
2023-02-17T04:33:40.000Z,6.49
2023-02-17T04:36:09.124Z,6.46
2023-02-17T04:38:38.035Z,6.41
2023-02-17T04:41:07.039Z,6.38
2023-02-17T04:43:34.964Z,6.36
2023-02-17T04:46:02.960Z,6.33
2023-02-17T04:48:30.874Z,6.29
2023-02-17T04:50:58.777Z,6.26
2023-02-17T04:53:26.664Z,6.23
2023-02-17T04:55:54.661Z,6.21
2023-02-17T04:58:22.792Z,6.21
2023-02-17T05:00:51.129Z,6.21
2023-02-17T05:03:19.635Z,6.21
2023-02-17T05:05:47.676Z,6.23
2023-02-17T05:08:15.915Z,6.26
2023-02-17T05:10:43.774Z,6.29
2023-02-17T05:13:11.761Z,6.33
2023-02-17T05:15:39.659Z,6.36
2023-02-17T05:18:07.522Z,6.39
2023-02-17T05:20:35.409Z,6.42
2023-02-17T05:23:03.248Z,6.45
2023-02-17T05:25:31.525Z,6.48
2023-02-17T05:27:59.379Z,6.52
2023-02-17T05:30:27.260Z,6.56
2023-02-17T05:32:55.174Z,6.60
2023-02-17T05:35:22.995Z,6.64
2023-02-17T05:37:50.951Z,6.68
2023-02-17T05:40:19.094Z,6.72
2023-02-17T05:42:46.910Z,6.76
2023-02-17T05:45:14.908Z,6.79
2023-02-17T05:47:42.749Z,6.82
2023-02-17T05:50:11.027Z,6.85
2023-02-17T05:52:38.917Z,6.89
2023-02-17T05:55:06.982Z,6.92
2023-02-17T05:57:34.774Z,6.95
2023-02-17T06:00:03.502Z,6.98
2023-02-17T06:02:40.051Z,6.99
2023-02-17T06:05:08.858Z,7.01
2023-02-17T06:07:37.090Z,7.03
2023-02-17T06:10:05.620Z,7.05
2023-02-17T06:12:33.492Z,7.07
2023-02-17T06:15:01.340Z,7.09
2023-02-17T06:17:29.213Z,7.13
2023-02-17T06:19:57.113Z,7.15
2023-02-17T06:22:24.985Z,7.16
2023-02-17T06:24:52.775Z,7.18
2023-02-17T06:27:20.593Z,7.21
2023-02-17T06:29:48.521Z,7.23
2023-02-17T06:32:16.900Z,7.27
2023-02-17T06:34:44.758Z,7.28
2023-02-17T06:37:12.693Z,7.30
2023-02-17T06:39:40.602Z,7.32
2023-02-17T06:42:08.473Z,7.35
2023-02-17T06:44:36.436Z,7.37
2023-02-17T06:47:04.447Z,7.39
2023-02-17T06:49:32.347Z,7.50
2023-02-17T06:52:00.273Z,7.88
2023-02-17T06:54:28.231Z,8.18
2023-02-17T06:56:56.068Z,8.41
2023-02-17T06:59:23.945Z,8.54
2023-02-17T07:01:51.875Z,8.70
2023-02-17T07:04:19.701Z,8.72
2023-02-17T07:06:47.531Z,8.64
2023-02-17T07:09:15.437Z,8.55
2023-02-17T07:11:45.221Z,8.48
2023-02-17T07:14:13.183Z,8.42
2023-02-17T07:16:41.090Z,8.38
2023-02-17T07:19:09.006Z,8.35
2023-02-17T07:21:36.843Z,8.34
2023-02-17T07:24:04.826Z,8.32
2023-02-17T07:26:35.712Z,8.32
2023-02-17T07:29:04.479Z,8.31
2023-02-17T07:31:33.546Z,8.31
2023-02-17T07:34:03.030Z,8.33
2023-02-17T07:36:31.306Z,8.34
2023-02-17T07:38:59.278Z,8.35
2023-02-17T07:41:32.100Z,8.38
2023-02-17T07:44:01.866Z,8.42
2023-02-17T07:46:29.786Z,8.44
2023-02-17T07:48:58.716Z,8.47
2023-02-17T07:51:26.815Z,8.50
2023-02-17T07:53:55.053Z,8.50
2023-02-17T07:56:23.198Z,8.54
2023-02-17T07:58:51.426Z,8.57
2023-02-17T08:01:22.941Z,8.63
2023-02-17T08:03:50.947Z,8.69
2023-02-17T08:06:24.212Z,8.73
2023-02-17T08:09:12.364Z,8.76
2023-02-17T08:12:00.100Z,8.79
2023-02-17T08:14:30.093Z,8.82
2023-02-17T08:16:58.610Z,8.84
2023-02-17T08:19:31.672Z,8.86
2023-02-17T08:22:07.414Z,8.87
2023-02-17T08:24:35.250Z,8.88
2023-02-17T08:27:03.171Z,8.88
2023-02-17T08:29:31.055Z,8.89
2023-02-17T08:31:59.019Z,8.93
2023-02-17T08:34:28.101Z,8.97
2023-02-17T08:36:55.964Z,9.01
2023-02-17T08:39:24.208Z,9.08
2023-02-17T08:41:52.021Z,9.15
2023-02-17T08:44:21.839Z,9.22
2023-02-17T08:46:51.232Z,9.28
2023-02-17T08:49:22.744Z,9.34
2023-02-17T08:51:51.580Z,9.39
2023-02-17T08:54:19.830Z,9.44
2023-02-17T08:56:47.777Z,9.51
2023-02-17T08:59:15.945Z,9.55
2023-02-17T09:01:44.017Z,9.58
2023-02-17T09:04:13.833Z,9.61
2023-02-17T09:06:48.246Z,9.64
2023-02-17T09:09:19.499Z,9.68
2023-02-17T09:11:47.337Z,9.70
2023-02-17T09:14:15.722Z,9.72
2023-02-17T09:16:43.566Z,9.74
2023-02-17T09:19:11.442Z,9.79
2023-02-17T09:21:39.278Z,9.86
2023-02-17T09:24:07.314Z,9.92
2023-02-17T09:26:35.869Z,9.95
2023-02-17T09:29:05.558Z,9.95
2023-02-17T09:31:35.136Z,9.96
2023-02-17T09:34:04.484Z,9.98
2023-02-17T09:36:37.778Z,9.98
2023-02-17T09:39:06.115Z,9.99
2023-02-17T09:41:41.403Z,10.00
2023-02-17T09:44:27.267Z,10.02
2023-02-17T09:47:17.296Z,10.02
2023-02-17T09:49:53.553Z,10.06
2023-02-17T09:52:33.708Z,10.09
2023-02-17T09:55:08.284Z,10.12
2023-02-17T09:58:00.443Z,10.15
2023-02-17T10:00:38.354Z,10.17
2023-02-17T10:03:18.216Z,10.17
2023-02-17T10:05:55.037Z,10.16
2023-02-17T10:08:30.772Z,10.15
2023-02-17T10:11:08.612Z,10.11
2023-02-17T10:13:37.587Z,10.11
2023-02-17T10:16:11.722Z,10.13
2023-02-17T10:18:45.041Z,10.13
2023-02-17T10:21:22.084Z,10.13
2023-02-17T10:23:51.449Z,10.11
2023-02-17T10:26:26.113Z,10.07
2023-02-17T10:29:27.794Z,10.04
2023-02-17T10:32:04.175Z,10.04
2023-02-17T10:34:38.286Z,10.05
2023-02-17T10:37:33.898Z,10.08
2023-02-17T10:40:03.576Z,10.11
2023-02-17T10:42:35.966Z,10.13
2023-02-17T10:45:32.316Z,10.14
2023-02-17T10:48:09.566Z,10.14
2023-02-17T10:50:41.149Z,10.15
2023-02-17T10:53:13.566Z,10.19
2023-02-17T10:55:48.539Z,10.24
2023-02-17T10:58:25.359Z,10.29
2023-02-17T11:00:56.534Z,10.32
2023-02-17T11:03:27.604Z,10.35
2023-02-17T11:06:00.861Z,10.40
2023-02-17T11:08:31.540Z,10.47
2023-02-17T11:11:05.344Z,10.52
2023-02-17T11:13:40.240Z,10.55
2023-02-17T11:16:39.640Z,10.57
2023-02-17T11:19:21.672Z,10.59
2023-02-17T11:21:52.348Z,10.61
2023-02-17T11:24:20.418Z,10.63
2023-02-17T11:27:03.369Z,10.65
2023-02-17T11:29:32.475Z,10.68
2023-02-17T11:32:08.938Z,10.71
2023-02-17T11:34:39.283Z,10.76
2023-02-17T11:37:13.231Z,10.82
2023-02-17T11:39:45.094Z,10.90
2023-02-17T11:42:16.120Z,10.96
2023-02-17T11:44:44.025Z,11.04
2023-02-17T11:47:39.725Z,11.15
2023-02-17T11:50:42.213Z,11.23
2023-02-17T11:53:31.663Z,11.29
2023-02-17T11:56:13.552Z,11.37
2023-02-17T11:58:58.974Z,11.47
2023-02-17T12:01:35.974Z,11.53
2023-02-17T12:04:28.034Z,11.55
2023-02-17T12:07:14.574Z,11.53
2023-02-17T12:09:56.915Z,11.52
2023-02-17T12:12:51.925Z,11.50
2023-02-17T12:15:47.921Z,11.48
2023-02-17T12:18:43.458Z,11.50
2023-02-17T12:21:34.048Z,11.52
2023-02-17T12:24:13.210Z,11.56
2023-02-17T12:26:47.895Z,11.61
2023-02-17T12:29:54.178Z,11.64
2023-02-17T12:32:34.550Z,11.68
2023-02-17T12:35:18.604Z,11.73
2023-02-17T12:37:53.138Z,11.76
2023-02-17T12:40:36.844Z,11.79
2023-02-17T12:43:14.372Z,11.82
2023-02-17T12:45:46.716Z,11.85
2023-02-17T12:48:33.136Z,11.89
2023-02-17T12:51:17.673Z,11.95
2023-02-17T12:53:56.348Z,12.01
2023-02-17T12:56:31.300Z,12.07
2023-02-17T12:59:15.724Z,12.10
2023-02-17T13:02:09.923Z,12.14
2023-02-17T13:04:39.140Z,12.20
2023-02-17T13:07:21.147Z,12.21
2023-02-17T13:09:51.854Z,12.17
2023-02-17T13:12:22.807Z,12.17
2023-02-17T13:14:56.093Z,12.17
2023-02-17T13:18:03.613Z,12.20
2023-02-17T13:20:45.860Z,12.22
2023-02-17T13:23:26.191Z,12.18
2023-02-17T13:26:28.397Z,12.11
2023-02-17T13:29:21.541Z,12.05
2023-02-17T13:31:53.563Z,12.00
2023-02-17T13:34:58.699Z,11.95
2023-02-17T13:37:42.610Z,11.91
2023-02-17T13:40:16.305Z,11.87
2023-02-17T13:42:51.722Z,11.81
2023-02-17T13:45:29.235Z,11.78
2023-02-17T13:47:59.446Z,11.75
2023-02-17T13:50:35.612Z,11.71
2023-02-17T13:53:21.465Z,11.67
2023-02-17T13:55:49.583Z,11.64
2023-02-17T13:58:43.585Z,11.60
2023-02-17T14:01:18.037Z,11.56
2023-02-17T14:03:50.717Z,11.54
2023-02-17T14:06:28.284Z,11.53
2023-02-17T14:08:56.900Z,11.53
2023-02-17T14:11:28.519Z,11.53
2023-02-17T14:13:57.659Z,11.50
2023-02-17T14:16:37.711Z,11.49
2023-02-17T14:19:07.056Z,11.53
2023-02-17T14:21:37.242Z,11.55
2023-02-17T14:24:05.407Z,11.56
2023-02-17T14:26:39.523Z,11.57
2023-02-17T14:29:10.387Z,11.58
2023-02-17T14:31:43.994Z,11.60
2023-02-17T14:34:21.058Z,11.57
2023-02-17T14:36:49.097Z,11.53
2023-02-17T14:39:17.039Z,11.49
2023-02-17T14:41:45.117Z,11.48
2023-02-17T14:44:13.101Z,11.48
2023-02-17T14:46:41.084Z,11.47
2023-02-17T14:49:08.984Z,11.45
2023-02-17T14:51:37.717Z,11.45
2023-02-17T14:54:15.249Z,11.45
2023-02-17T14:56:57.756Z,11.45
2023-02-17T14:59:25.704Z,11.47
2023-02-17T15:01:53.695Z,11.46
2023-02-17T15:04:21.776Z,11.43
2023-02-17T15:06:51.243Z,11.41
2023-02-17T15:09:31.215Z,11.40
2023-02-17T15:11:59.294Z,11.36
2023-02-17T15:14:27.125Z,11.32
2023-02-17T15:16:54.997Z,11.29
2023-02-17T15:19:24.587Z,11.27
2023-02-17T15:21:52.821Z,11.26
2023-02-17T15:24:29.899Z,11.26
2023-02-17T15:26:59.161Z,11.25
2023-02-17T15:29:27.548Z,11.23
2023-02-17T15:31:58.989Z,11.22
2023-02-17T15:34:31.746Z,11.21
2023-02-17T15:37:01.136Z,11.21
2023-02-17T15:39:29.280Z,11.22
2023-02-17T15:42:00.499Z,11.22
2023-02-17T15:44:39.654Z,11.24
2023-02-17T15:47:14.377Z,11.26
2023-02-17T15:49:42.418Z,11.27
2023-02-17T15:52:14.704Z,11.27
2023-02-17T15:54:43.813Z,11.27
2023-02-17T15:57:21.906Z,11.25
2023-02-17T15:59:50.098Z,11.22
2023-02-17T16:02:21.379Z,11.19
2023-02-17T16:04:49.574Z,11.15
2023-02-17T16:07:17.627Z,11.14
2023-02-17T16:09:45.457Z,11.11
2023-02-17T16:12:17.550Z,11.11
2023-02-17T16:14:45.693Z,11.12
2023-02-17T16:17:16.048Z,11.14
2023-02-17T16:19:44.001Z,11.17
2023-02-17T16:22:12.026Z,11.21
2023-02-17T16:24:40.813Z,11.24
2023-02-17T16:27:14.379Z,11.26
2023-02-17T16:29:42.316Z,11.29
2023-02-17T16:32:13.754Z,11.31
2023-02-17T16:34:41.930Z,11.34
2023-02-17T16:37:17.372Z,11.36
2023-02-17T16:39:45.917Z,11.39
2023-02-17T16:42:15.358Z,11.41
2023-02-17T16:44:44.239Z,11.43
2023-02-17T16:47:22.506Z,11.44
2023-02-17T16:49:50.674Z,11.45
2023-02-17T16:52:27.351Z,11.46
2023-02-17T16:54:55.293Z,11.45
2023-02-17T16:57:23.855Z,11.45
2023-02-17T16:59:51.855Z,11.47
2023-02-17T17:02:21.656Z,11.49
2023-02-17T17:04:50.459Z,11.52
2023-02-17T17:07:18.315Z,11.55
2023-02-17T17:10:06.789Z,11.59
2023-02-17T17:12:34.481Z,11.62
2023-02-17T17:15:03.192Z,11.65
2023-02-17T17:17:38.835Z,11.68
2023-02-17T17:20:07.477Z,11.72
2023-02-17T17:22:35.360Z,11.74
2023-02-17T17:25:03.295Z,11.75
2023-02-17T17:27:31.207Z,11.78
2023-02-17T17:29:59.201Z,11.83
2023-02-17T17:32:27.516Z,11.95
2023-02-17T17:34:56.102Z,12.05
2023-02-17T17:37:23.937Z,12.14
2023-02-17T17:39:51.808Z,12.23
2023-02-17T17:42:19.774Z,12.31
2023-02-17T17:44:47.668Z,12.38
2023-02-17T17:47:29.493Z,12.44
2023-02-17T17:49:58.404Z,12.50
2023-02-17T17:52:26.531Z,12.55
2023-02-17T17:54:54.331Z,12.60
2023-02-17T17:57:22.596Z,12.64
2023-02-17T17:59:51.084Z,12.68
2023-02-17T18:02:18.947Z,12.72
2023-02-17T18:04:47.169Z,12.77
2023-02-17T18:07:15.462Z,12.80
2023-02-17T18:09:43.384Z,12.82
2023-02-17T18:12:15.055Z,12.85
2023-02-17T18:14:44.236Z,12.89
2023-02-17T18:17:15.319Z,12.91
2023-02-17T18:19:43.136Z,12.92
2023-02-17T18:22:11.149Z,12.93
2023-02-17T18:24:39.118Z,12.93
2023-02-17T18:27:07.076Z,12.93
2023-02-17T18:29:34.926Z,12.93
2023-02-17T18:32:02.781Z,12.93
2023-02-17T18:34:30.697Z,12.93
2023-02-17T18:36:59.521Z,12.91
2023-02-17T18:39:27.378Z,12.91
2023-02-17T18:41:55.554Z,12.91
2023-02-17T18:44:23.429Z,12.91
2023-02-17T18:46:51.327Z,12.92
2023-02-17T18:49:19.139Z,12.92
2023-02-17T18:51:47.547Z,12.92
2023-02-17T18:54:15.376Z,12.92
2023-02-17T18:56:43.290Z,12.92
2023-02-17T18:59:11.182Z,12.93
2023-02-17T19:01:40.876Z,12.93
2023-02-17T19:04:10.078Z,12.94
2023-02-17T19:06:38.071Z,12.95
2023-02-17T19:09:06.372Z,12.95
2023-02-17T19:11:34.579Z,12.97
2023-02-17T19:14:05.752Z,12.98
2023-02-17T19:16:34.170Z,13.00
2023-02-17T19:19:04.037Z,13.03
2023-02-17T19:21:32.195Z,13.08
2023-02-17T19:24:01.544Z,13.15
2023-02-17T19:26:29.458Z,13.24
2023-02-17T19:28:57.420Z,13.30
2023-02-17T19:31:25.422Z,13.35
2023-02-17T19:33:53.463Z,13.39
2023-02-17T19:36:22.319Z,13.42
2023-02-17T19:38:51.053Z,13.43
2023-02-17T19:41:19.468Z,13.44
2023-02-17T19:43:47.653Z,13.44
2023-02-17T19:46:19.741Z,13.43
2023-02-17T19:48:47.721Z,13.42
2023-02-17T19:51:15.671Z,13.41
2023-02-17T19:53:43.895Z,13.40
2023-02-17T19:56:21.259Z,13.38
2023-02-17T19:58:50.267Z,13.34
2023-02-17T20:01:21.149Z,13.30
2023-02-17T20:03:49.344Z,13.25
2023-02-17T20:06:18.713Z,13.14
2023-02-17T20:08:47.769Z,13.00
2023-02-17T20:11:15.703Z,12.82
2023-02-17T20:13:46.336Z,12.63
2023-02-17T20:16:16.667Z,12.42
2023-02-17T20:18:48.028Z,12.25
2023-02-17T20:21:19.808Z,12.11
2023-02-17T20:23:47.995Z,12.03
2023-02-17T20:26:28.001Z,11.96
2023-02-17T20:28:56.790Z,11.89
2023-02-17T20:31:25.929Z,11.81
2023-02-17T20:33:53.832Z,11.75
2023-02-17T20:36:25.154Z,11.70
2023-02-17T20:38:53.041Z,11.68
2023-02-17T20:41:23.192Z,11.67
2023-02-17T20:43:51.948Z,11.66
2023-02-17T20:46:22.494Z,11.66
2023-02-17T20:48:50.755Z,11.67
2023-02-17T20:51:18.871Z,11.67
2023-02-17T20:53:46.682Z,11.66
2023-02-17T20:56:17.917Z,11.66
2023-02-17T20:58:47.105Z,11.67
2023-02-17T21:01:15.202Z,11.67
2023-02-17T21:03:43.208Z,11.69
2023-02-17T21:06:29.250Z,11.71
2023-02-17T21:09:05.007Z,11.72
2023-02-17T21:11:33.994Z,11.68
2023-02-17T21:14:01.842Z,11.65
2023-02-17T21:16:31.218Z,11.62
2023-02-17T21:19:00.899Z,11.60
2023-02-17T21:21:29.420Z,11.58
2023-02-17T21:23:58.257Z,11.58
2023-02-17T21:26:26.534Z,11.56
2023-02-17T21:28:54.997Z,11.53
2023-02-17T21:31:23.023Z,11.52
2023-02-17T21:33:50.981Z,11.51
2023-02-17T21:36:19.582Z,11.53
2023-02-17T21:38:47.868Z,11.58
2023-02-17T21:41:19.246Z,11.63
2023-02-17T21:44:06.238Z,11.67
2023-02-17T21:46:34.557Z,11.70
2023-02-17T21:49:02.599Z,11.73
2023-02-17T21:51:31.006Z,11.76
2023-02-17T21:53:59.399Z,11.81
2023-02-17T21:56:27.840Z,11.85
2023-02-17T21:58:55.995Z,11.89
2023-02-17T22:01:26.227Z,11.93
2023-02-17T22:03:54.911Z,11.96
2023-02-17T22:06:29.556Z,11.99
2023-02-17T22:08:58.648Z,12.02
2023-02-17T22:11:31.715Z,12.06
2023-02-17T22:14:01.791Z,12.09
2023-02-17T22:16:31.866Z,12.11
2023-02-17T22:19:00.665Z,12.11
2023-02-17T22:21:29.208Z,12.11
2023-02-17T22:23:58.408Z,12.11
2023-02-17T22:26:28.041Z,12.11
2023-02-17T22:28:56.791Z,12.10
2023-02-17T22:31:27.804Z,12.10
2023-02-17T22:33:57.227Z,12.09
2023-02-17T22:36:25.207Z,12.07
2023-02-17T22:38:54.109Z,12.01
2023-02-17T22:41:24.026Z,11.87
2023-02-17T22:43:53.934Z,11.73
2023-02-17T22:46:24.327Z,11.62
2023-02-17T22:48:53.099Z,11.50
2023-02-17T22:51:23.743Z,11.41
2023-02-17T22:53:51.972Z,11.32
2023-02-17T22:56:20.966Z,11.23
2023-02-17T22:58:55.308Z,11.12
2023-02-17T23:01:24.772Z,10.99
2023-02-17T23:03:54.529Z,10.89
2023-02-17T23:06:29.475Z,10.79
2023-02-17T23:08:57.995Z,10.66
2023-02-17T23:11:54.855Z,10.54
2023-02-17T23:14:49.206Z,10.41
2023-02-17T23:17:16.899Z,10.30
2023-02-17T23:19:44.738Z,10.21
2023-02-17T23:22:16.677Z,10.16
2023-02-17T23:24:48.019Z,10.11
2023-02-17T23:27:16.118Z,10.08
2023-02-17T23:29:44.037Z,10.07
2023-02-17T23:32:11.879Z,10.07
2023-02-17T23:34:40.313Z,10.07
2023-02-17T23:37:08.182Z,10.07
2023-02-17T23:39:37.989Z,10.06
2023-02-17T23:42:06.140Z,10.05
2023-02-17T23:44:33.922Z,10.02
2023-02-17T23:47:02.684Z,9.98
2023-02-17T23:49:30.733Z,9.94
2023-02-17T23:51:58.597Z,9.89
2023-02-17T23:54:26.438Z,9.84
2023-02-17T23:56:54.294Z,9.79
2023-02-17T23:59:22.173Z,9.74
